Cheneyville, Louisiana
Current Conditions -  °F | °C
As of 7:53 PM on Saturday 22 Nov 2014 (Local Time) from KESF Reporting Station
Broken Clouds Broken Clouds  
Wind Chill: 64°   Ceiling: 4800
Heat Index: 64°   Visibility: 10mi
Dew Point: 58°   Wind: 12mph
Humidity: 80%   Direction: 120°ESE
Pressure: 29.91"   Gusts: NA
Location:  31.01°N, 92.29°W
Report Text: KESF 230153Z AUTO 12010KT 10SM FEW020 SCT040 BKN048 18/14 A2991 RMK AO2 RAB38E47 SLP128 P0000 T01780144
Loading
Personal Weather Stations






























Interactive Weather Map New forecast layout! Learn more

10-Day Weather Forecast

Advertisements
Track Severe Weather on mobile